sensor_id;sensor_type;location;lat;lon;timestamp;P1;durP1;ratioP1;P2;durP2;ratioP2
31126;SDS011;17775;57.948;12.514;2022-09-01T00:01:10;2.85;;;1.08;;
31126;SDS011;17775;57.948;12.514;2022-09-01T00:03:39;1.52;;;0.90;;
31126;SDS011;17775;57.948;12.514;2022-09-01T00:06:06;1.83;;;1.20;;
31126;SDS011;17775;57.948;12.514;2022-09-01T00:08:35;1.15;;;0.80;;
31126;SDS011;17775;57.948;12.514;2022-09-01T00:11:01;2.08;;;1.30;;
31126;SDS011;17775;57.948;12.514;2022-09-01T00:13:28;1.70;;;1.10;;
31126;SDS011;17775;57.948;12.514;2022-09-01T00:16:01;2.15;;;1.02;;
31126;SDS011;17775;57.948;12.514;2022-09-01T00:18:29;1.45;;;1.05;;
31126;SDS011;17775;57.948;12.514;2022-09-01T00:20:56;2.35;;;1.00;;
31126;SDS011;17775;57.948;12.514;2022-09-01T00:23:25;3.08;;;1.23;;
31126;SDS011;17775;57.948;12.514;2022-09-01T00:25:52;3.45;;;0.90;;
31126;SDS011;17775;57.948;12.514;2022-09-01T00:28:18;2.08;;;0.77;;
31126;SDS011;17775;57.948;12.514;2022-09-01T00:30:45;1.10;;;0.85;;
31126;SDS011;17775;57.948;12.514;2022-09-01T00:33:12;1.80;;;0.88;;
31126;SDS011;17775;57.948;12.514;2022-09-01T00:35:39;1.23;;;0.85;;
31126;SDS011;17775;57.948;12.514;2022-09-01T00:38:06;5.53;;;1.05;;
31126;SDS011;17775;57.948;12.514;2022-09-01T00:40:32;1.05;;;0.88;;
31126;SDS011;17775;57.948;12.514;2022-09-01T00:42:59;1.30;;;1.00;;
31126;SDS011;17775;57.948;12.514;2022-09-01T00:45:26;1.30;;;0.90;;
31126;SDS011;17775;57.948;12.514;2022-09-01T00:47:55;1.25;;;0.93;;
31126;SDS011;17775;57.948;12.514;2022-09-01T00:50:22;1.50;;;0.75;;
31126;SDS011;17775;57.948;12.514;2022-09-01T00:52:50;2.85;;;0.90;;
31126;SDS011;17775;57.948;12.514;2022-09-01T00:55:20;1.58;;;1.00;;
31126;SDS011;17775;57.948;12.514;2022-09-01T00:57:48;3.10;;;0.90;;
31126;SDS011;17775;57.948;12.514;2022-09-01T01:00:16;2.20;;;1.00;;
31126;SDS011;17775;57.948;12.514;2022-09-01T01:02:43;1.73;;;0.82;;
31126;SDS011;17775;57.948;12.514;2022-09-01T01:05:10;1.27;;;0.80;;
31126;SDS011;17775;57.948;12.514;2022-09-01T01:07:41;2.28;;;0.80;;
31126;SDS011;17775;57.948;12.514;2022-09-01T01:10:16;2.88;;;0.90;;
31126;SDS011;17775;57.948;12.514;2022-09-01T01:12:43;2.47;;;0.90;;
31126;SDS011;17775;57.948;12.514;2022-09-01T01:15:11;1.75;;;0.88;;
31126;SDS011;17775;57.948;12.514;2022-09-01T01:17:38;1.25;;;0.88;;
31126;SDS011;17775;57.948;12.514;2022-09-01T01:20:04;2.63;;;1.08;;
31126;SDS011;17775;57.948;12.514;2022-09-01T01:22:54;1.63;;;1.02;;
31126;SDS011;17775;57.948;12.514;2022-09-01T01:30:45;4.00;;;1.08;;
31126;SDS011;17775;57.948;12.514;2022-09-01T01:33:20;2.10;;;0.98;;
31126;SDS011;17775;57.948;12.514;2022-09-01T01:35:49;3.03;;;1.00;;
31126;SDS011;17775;57.948;12.514;2022-09-01T01:38:17;1.45;;;0.90;;
31126;SDS011;17775;57.948;12.514;2022-09-01T01:40:48;4.40;;;1.05;;
31126;SDS011;17775;57.948;12.514;2022-09-01T01:43:14;1.75;;;0.90;;
31126;SDS011;17775;57.948;12.514;2022-09-01T01:45:48;1.35;;;0.90;;
31126;SDS011;17775;57.948;12.514;2022-09-01T01:48:17;1.33;;;1.00;;
31126;SDS011;17775;57.948;12.514;2022-09-01T01:50:48;1.23;;;1.00;;
31126;SDS011;17775;57.948;12.514;2022-09-01T01:53:14;1.20;;;0.93;;
31126;SDS011;17775;57.948;12.514;2022-09-01T01:55:44;1.52;;;1.10;;
31126;SDS011;17775;57.948;12.514;2022-09-01T01:58:11;3.05;;;1.00;;
31126;SDS011;17775;57.948;12.514;2022-09-01T02:00:37;2.58;;;0.88;;
31126;SDS011;17775;57.948;12.514;2022-09-01T02:03:04;2.38;;;1.10;;
31126;SDS011;17775;57.948;12.514;2022-09-01T02:05:34;3.83;;;1.52;;
31126;SDS011;17775;57.948;12.514;2022-09-01T02:08:02;2.00;;;0.80;;
31126;SDS011;17775;57.948;12.514;2022-09-01T02:10:34;1.15;;;0.90;;
31126;SDS011;17775;57.948;12.514;2022-09-01T02:13:02;0.95;;;0.82;;
31126;SDS011;17775;57.948;12.514;2022-09-01T02:15:33;1.35;;;0.90;;
31126;SDS011;17775;57.948;12.514;2022-09-01T02:18:09;1.85;;;1.00;;
31126;SDS011;17775;57.948;12.514;2022-09-01T02:20:36;2.25;;;1.00;;
31126;SDS011;17775;57.948;12.514;2022-09-01T02:23:03;1.60;;;1.10;;
31126;SDS011;17775;57.948;12.514;2022-09-01T02:25:42;1.98;;;0.80;;
31126;SDS011;17775;57.948;12.514;2022-09-01T02:28:30;1.83;;;1.10;;
31126;SDS011;17775;57.948;12.514;2022-09-01T02:30:57;1.00;;;0.88;;
31126;SDS011;17775;57.948;12.514;2022-09-01T02:33:25;2.17;;;0.93;;
31126;SDS011;17775;57.948;12.514;2022-09-01T02:35:54;1.48;;;0.90;;
31126;SDS011;17775;57.948;12.514;2022-09-01T02:38:21;2.72;;;1.10;;
31126;SDS011;17775;57.948;12.514;2022-09-01T02:40:52;1.30;;;1.00;;
31126;SDS011;17775;57.948;12.514;2022-09-01T02:43:19;2.78;;;1.20;;
31126;SDS011;17775;57.948;12.514;2022-09-01T02:45:47;2.17;;;1.08;;
31126;SDS011;17775;57.948;12.514;2022-09-01T02:48:16;1.25;;;1.00;;
31126;SDS011;17775;57.948;12.514;2022-09-01T02:50:43;1.98;;;1.15;;
31126;SDS011;17775;57.948;12.514;2022-09-01T02:53:10;1.75;;;0.90;;
31126;SDS011;17775;57.948;12.514;2022-09-01T02:55:40;1.20;;;0.88;;
31126;SDS011;17775;57.948;12.514;2022-09-01T02:58:07;2.23;;;1.03;;
31126;SDS011;17775;57.948;12.514;2022-09-01T03:00:39;1.58;;;1.20;;
31126;SDS011;17775;57.948;12.514;2022-09-01T03:03:06;1.48;;;1.00;;
31126;SDS011;17775;57.948;12.514;2022-09-01T03:05:33;2.33;;;1.20;;
31126;SDS011;17775;57.948;12.514;2022-09-01T03:08:00;2.05;;;1.30;;
31126;SDS011;17775;57.948;12.514;2022-09-01T03:10:31;2.35;;;1.20;;
31126;SDS011;17775;57.948;12.514;2022-09-01T03:15:25;1.85;;;1.38;;
31126;SDS011;17775;57.948;12.514;2022-09-01T03:17:52;1.83;;;1.27;;
31126;SDS011;17775;57.948;12.514;2022-09-01T03:20:19;1.98;;;1.30;;
31126;SDS011;17775;57.948;12.514;2022-09-01T03:22:47;2.35;;;1.20;;
31126;SDS011;17775;57.948;12.514;2022-09-01T03:25:14;1.00;;;0.82;;
31126;SDS011;17775;57.948;12.514;2022-09-01T03:27:41;1.42;;;1.00;;
31126;SDS011;17775;57.948;12.514;2022-09-01T03:30:07;2.20;;;1.23;;
31126;SDS011;17775;57.948;12.514;2022-09-01T03:32:34;1.65;;;1.00;;
31126;SDS011;17775;57.948;12.514;2022-09-01T03:35:00;2.45;;;1.13;;
31126;SDS011;17775;57.948;12.514;2022-09-01T03:37:27;4.72;;;1.10;;
31126;SDS011;17775;57.948;12.514;2022-09-01T03:39:53;1.50;;;1.10;;
31126;SDS011;17775;57.948;12.514;2022-09-01T03:42:23;1.55;;;1.38;;
31126;SDS011;17775;57.948;12.514;2022-09-01T03:44:51;1.83;;;1.02;;
31126;SDS011;17775;57.948;12.514;2022-09-01T03:47:18;2.03;;;1.17;;
31126;SDS011;17775;57.948;12.514;2022-09-01T03:49:46;1.58;;;0.95;;
31126;SDS011;17775;57.948;12.514;2022-09-01T03:52:15;2.55;;;1.67;;
31126;SDS011;17775;57.948;12.514;2022-09-01T03:54:42;2.60;;;1.65;;
31126;SDS011;17775;57.948;12.514;2022-09-01T03:57:10;2.30;;;1.40;;
31126;SDS011;17775;57.948;12.514;2022-09-01T03:59:39;1.67;;;1.20;;
31126;SDS011;17775;57.948;12.514;2022-09-01T04:02:08;2.08;;;1.40;;
31126;SDS011;17775;57.948;12.514;2022-09-01T04:04:35;3.08;;;1.80;;
31126;SDS011;17775;57.948;12.514;2022-09-01T04:07:01;1.95;;;1.30;;
31126;SDS011;17775;57.948;12.514;2022-09-01T04:09:28;3.70;;;1.58;;
31126;SDS011;17775;57.948;12.514;2022-09-01T04:11:54;1.85;;;1.40;;
31126;SDS011;17775;57.948;12.514;2022-09-01T04:14:20;4.05;;;1.23;;
31126;SDS011;17775;57.948;12.514;2022-09-01T04:16:47;2.80;;;1.50;;
31126;SDS011;17775;57.948;12.514;2022-09-01T04:19:33;2.05;;;1.30;;
31126;SDS011;17775;57.948;12.514;2022-09-01T04:22:04;5.00;;;1.52;;
31126;SDS011;17775;57.948;12.514;2022-09-01T04:24:33;5.28;;;1.63;;
31126;SDS011;17775;57.948;12.514;2022-09-01T04:27:00;2.08;;;1.40;;
31126;SDS011;17775;57.948;12.514;2022-09-01T04:29:27;3.90;;;1.70;;
31126;SDS011;17775;57.948;12.514;2022-09-01T04:32:27;2.55;;;1.48;;
31126;SDS011;17775;57.948;12.514;2022-09-01T04:34:47;2.83;;;1.25;;
31126;SDS011;17775;57.948;12.514;2022-09-01T04:37:15;4.00;;;1.40;;
31126;SDS011;17775;57.948;12.514;2022-09-01T04:39:50;4.10;;;1.90;;
31126;SDS011;17775;57.948;12.514;2022-09-01T04:42:21;4.50;;;1.63;;
31126;SDS011;17775;57.948;12.514;2022-09-01T04:44:50;2.80;;;1.20;;
31126;SDS011;17775;57.948;12.514;2022-09-01T04:47:16;2.20;;;1.45;;
31126;SDS011;17775;57.948;12.514;2022-09-01T04:49:45;3.78;;;1.60;;
31126;SDS011;17775;57.948;12.514;2022-09-01T04:52:13;2.22;;;1.40;;
31126;SDS011;17775;57.948;12.514;2022-09-01T04:54:40;3.03;;;1.50;;
31126;SDS011;17775;57.948;12.514;2022-09-01T04:57:06;2.13;;;1.42;;
31126;SDS011;17775;57.948;12.514;2022-09-01T04:59:33;3.17;;;1.30;;
31126;SDS011;17775;57.948;12.514;2022-09-01T05:01:59;2.63;;;1.40;;
31126;SDS011;17775;57.948;12.514;2022-09-01T05:04:27;4.95;;;1.50;;
31126;SDS011;17775;57.948;12.514;2022-09-01T05:06:55;2.33;;;1.33;;
31126;SDS011;17775;57.948;12.514;2022-09-01T05:09:29;2.13;;;1.58;;
31126;SDS011;17775;57.948;12.514;2022-09-01T05:11:56;1.98;;;1.40;;
31126;SDS011;17775;57.948;12.514;2022-09-01T05:14:23;2.30;;;1.60;;
31126;SDS011;17775;57.948;12.514;2022-09-01T05:16:54;2.33;;;1.25;;
31126;SDS011;17775;57.948;12.514;2022-09-01T05:19:21;3.00;;;1.60;;
31126;SDS011;17775;57.948;12.514;2022-09-01T05:21:51;1.63;;;1.17;;
31126;SDS011;17775;57.948;12.514;2022-09-01T05:24:19;3.88;;;1.35;;
31126;SDS011;17775;57.948;12.514;2022-09-01T05:26:47;2.97;;;1.50;;
31126;SDS011;17775;57.948;12.514;2022-09-01T05:29:14;3.55;;;2.13;;
31126;SDS011;17775;57.948;12.514;2022-09-01T05:31:43;1.90;;;1.25;;
31126;SDS011;17775;57.948;12.514;2022-09-01T05:34:12;1.70;;;1.20;;
31126;SDS011;17775;57.948;12.514;2022-09-01T05:36:43;2.53;;;1.50;;
31126;SDS011;17775;57.948;12.514;2022-09-01T05:39:10;2.22;;;1.40;;
31126;SDS011;17775;57.948;12.514;2022-09-01T05:41:38;2.58;;;1.50;;
31126;SDS011;17775;57.948;12.514;2022-09-01T05:44:05;4.72;;;1.50;;
31126;SDS011;17775;57.948;12.514;2022-09-01T05:46:34;2.00;;;1.40;;
31126;SDS011;17775;57.948;12.514;2022-09-01T05:49:02;2.03;;;1.40;;
31126;SDS011;17775;57.948;12.514;2022-09-01T05:51:29;3.10;;;1.40;;
31126;SDS011;17775;57.948;12.514;2022-09-01T05:54:11;5.80;;;3.63;;
31126;SDS011;17775;57.948;12.514;2022-09-01T05:56:40;6.93;;;1.90;;
31126;SDS011;17775;57.948;12.514;2022-09-01T05:59:10;2.35;;;1.60;;
31126;SDS011;17775;57.948;12.514;2022-09-01T06:01:54;3.58;;;1.40;;
31126;SDS011;17775;57.948;12.514;2022-09-01T06:04:21;3.28;;;1.50;;
31126;SDS011;17775;57.948;12.514;2022-09-01T06:06:48;3.30;;;1.50;;
31126;SDS011;17775;57.948;12.514;2022-09-01T06:09:35;2.35;;;1.25;;
31126;SDS011;17775;57.948;12.514;2022-09-01T06:12:01;2.63;;;1.27;;
31126;SDS011;17775;57.948;12.514;2022-09-01T06:14:28;3.30;;;1.33;;
31126;SDS011;17775;57.948;12.514;2022-09-01T06:16:55;2.75;;;1.33;;
31126;SDS011;17775;57.948;12.514;2022-09-01T06:19:21;1.75;;;1.23;;
31126;SDS011;17775;57.948;12.514;2022-09-01T06:21:48;2.35;;;1.10;;
31126;SDS011;17775;57.948;12.514;2022-09-01T06:24:14;3.63;;;1.27;;
31126;SDS011;17775;57.948;12.514;2022-09-01T06:26:42;1.83;;;1.20;;
31126;SDS011;17775;57.948;12.514;2022-09-01T06:29:11;2.35;;;1.05;;
31126;SDS011;17775;57.948;12.514;2022-09-01T06:31:41;3.00;;;1.10;;
31126;SDS011;17775;57.948;12.514;2022-09-01T06:34:09;3.72;;;1.10;;
31126;SDS011;17775;57.948;12.514;2022-09-01T06:36:46;1.45;;;1.00;;
31126;SDS011;17775;57.948;12.514;2022-09-01T06:39:14;2.25;;;1.20;;
31126;SDS011;17775;57.948;12.514;2022-09-01T06:41:47;1.23;;;0.75;;
31126;SDS011;17775;57.948;12.514;2022-09-01T06:44:15;1.20;;;0.73;;
31126;SDS011;17775;57.948;12.514;2022-09-01T06:46:48;2.05;;;0.95;;
31126;SDS011;17775;57.948;12.514;2022-09-01T06:49:14;1.67;;;0.85;;
31126;SDS011;17775;57.948;12.514;2022-09-01T06:51:41;1.63;;;0.80;;
31126;SDS011;17775;57.948;12.514;2022-09-01T06:54:07;2.20;;;0.80;;
31126;SDS011;17775;57.948;12.514;2022-09-01T06:56:40;1.45;;;0.80;;
31126;SDS011;17775;57.948;12.514;2022-09-01T06:59:16;1.50;;;1.10;;
31126;SDS011;17775;57.948;12.514;2022-09-01T07:01:43;1.10;;;0.60;;
31126;SDS011;17775;57.948;12.514;2022-09-01T07:04:10;1.00;;;0.70;;
31126;SDS011;17775;57.948;12.514;2022-09-01T07:06:39;1.27;;;0.70;;
31126;SDS011;17775;57.948;12.514;2022-09-01T07:09:26;5.63;;;0.90;;
31126;SDS011;17775;57.948;12.514;2022-09-01T07:12:14;0.85;;;0.70;;
31126;SDS011;17775;57.948;12.514;2022-09-01T07:14:53;1.75;;;0.77;;
31126;SDS011;17775;57.948;12.514;2022-09-01T07:17:40;1.42;;;0.80;;
31126;SDS011;17775;57.948;12.514;2022-09-01T07:20:07;2.95;;;0.60;;
31126;SDS011;17775;57.948;12.514;2022-09-01T07:22:51;0.73;;;0.52;;
31126;SDS011;17775;57.948;12.514;2022-09-01T07:25:34;1.05;;;0.60;;
31126;SDS011;17775;57.948;12.514;2022-09-01T07:28:24;0.73;;;0.60;;
31126;SDS011;17775;57.948;12.514;2022-09-01T07:34:03;5.57;;;0.80;;
31126;SDS011;17775;57.948;12.514;2022-09-01T07:36:51;2.33;;;0.80;;
31126;SDS011;17775;57.948;12.514;2022-09-01T07:39:41;0.65;;;0.40;;
31126;SDS011;17775;57.948;12.514;2022-09-01T07:42:18;2.90;;;0.75;;
31126;SDS011;17775;57.948;12.514;2022-09-01T07:45:08;2.58;;;0.50;;
31126;SDS011;17775;57.948;12.514;2022-09-01T07:47:53;0.93;;;0.70;;
31126;SDS011;17775;57.948;12.514;2022-09-01T07:50:20;1.38;;;0.60;;
31126;SDS011;17775;57.948;12.514;2022-09-01T07:53:06;0.80;;;0.55;;
31126;SDS011;17775;57.948;12.514;2022-09-01T07:55:34;1.27;;;0.60;;
31126;SDS011;17775;57.948;12.514;2022-09-01T07:58:01;1.15;;;0.65;;
31126;SDS011;17775;57.948;12.514;2022-09-01T08:00:28;2.40;;;0.68;;
31126;SDS011;17775;57.948;12.514;2022-09-01T08:02:57;1.85;;;0.60;;
31126;SDS011;17775;57.948;12.514;2022-09-01T08:05:24;2.88;;;0.85;;
31126;SDS011;17775;57.948;12.514;2022-09-01T08:07:52;3.90;;;0.70;;
31126;SDS011;17775;57.948;12.514;2022-09-01T08:10:19;1.58;;;0.55;;
31126;SDS011;17775;57.948;12.514;2022-09-01T08:12:46;0.52;;;0.40;;
31126;SDS011;17775;57.948;12.514;2022-09-01T08:15:21;0.57;;;0.43;;
31126;SDS011;17775;57.948;12.514;2022-09-01T08:18:08;1.17;;;0.50;;
31126;SDS011;17775;57.948;12.514;2022-09-01T08:20:36;0.85;;;0.50;;
31126;SDS011;17775;57.948;12.514;2022-09-01T08:23:05;1.08;;;0.68;;
31126;SDS011;17775;57.948;12.514;2022-09-01T08:25:32;0.60;;;0.40;;
31126;SDS011;17775;57.948;12.514;2022-09-01T08:28:02;0.80;;;0.50;;
31126;SDS011;17775;57.948;12.514;2022-09-01T08:30:29;1.75;;;0.60;;
31126;SDS011;17775;57.948;12.514;2022-09-01T08:32:58;0.75;;;0.40;;
31126;SDS011;17775;57.948;12.514;2022-09-01T08:35:39;0.95;;;0.38;;
31126;SDS011;17775;57.948;12.514;2022-09-01T08:38:05;1.33;;;0.50;;
31126;SDS011;17775;57.948;12.514;2022-09-01T08:40:32;0.47;;;0.40;;
31126;SDS011;17775;57.948;12.514;2022-09-01T08:48:18;2.08;;;0.50;;
31126;SDS011;17775;57.948;12.514;2022-09-01T08:53:51;1.00;;;0.45;;
31126;SDS011;17775;57.948;12.514;2022-09-01T08:56:37;0.68;;;0.57;;
31126;SDS011;17775;57.948;12.514;2022-09-01T08:59:05;1.63;;;0.40;;
31126;SDS011;17775;57.948;12.514;2022-09-01T09:04:21;1.50;;;0.52;;
31126;SDS011;17775;57.948;12.514;2022-09-01T09:09:15;0.98;;;0.68;;
31126;SDS011;17775;57.948;12.514;2022-09-01T09:11:56;1.58;;;0.57;;
31126;SDS011;17775;57.948;12.514;2022-09-01T09:14:31;0.85;;;0.50;;
31126;SDS011;17775;57.948;12.514;2022-09-01T09:17:01;1.27;;;0.50;;
31126;SDS011;17775;57.948;12.514;2022-09-01T09:19:47;1.00;;;0.70;;
31126;SDS011;17775;57.948;12.514;2022-09-01T09:22:15;1.23;;;0.60;;
31126;SDS011;17775;57.948;12.514;2022-09-01T09:27:17;1.30;;;0.50;;
31126;SDS011;17775;57.948;12.514;2022-09-01T09:29:45;0.50;;;0.50;;
31126;SDS011;17775;57.948;12.514;2022-09-01T09:32:12;1.90;;;0.70;;
31126;SDS011;17775;57.948;12.514;2022-09-01T09:35:00;1.75;;;0.68;;
31126;SDS011;17775;57.948;12.514;2022-09-01T09:37:41;2.00;;;0.40;;
31126;SDS011;17775;57.948;12.514;2022-09-01T09:40:09;4.40;;;0.60;;
31126;SDS011;17775;57.948;12.514;2022-09-01T09:42:37;0.88;;;0.55;;
31126;SDS011;17775;57.948;12.514;2022-09-01T09:47:52;0.52;;;0.38;;
31126;SDS011;17775;57.948;12.514;2022-09-01T09:52:49;2.13;;;0.57;;
31126;SDS011;17775;57.948;12.514;2022-09-01T09:55:23;0.70;;;0.50;;
31126;SDS011;17775;57.948;12.514;2022-09-01T09:57:52;0.88;;;0.60;;
31126;SDS011;17775;57.948;12.514;2022-09-01T10:00:20;0.88;;;0.60;;
31126;SDS011;17775;57.948;12.514;2022-09-01T10:02:55;1.20;;;0.60;;
31126;SDS011;17775;57.948;12.514;2022-09-01T10:07:53;1.02;;;0.60;;
31126;SDS011;17775;57.948;12.514;2022-09-01T10:10:28;0.90;;;0.63;;
31126;SDS011;17775;57.948;12.514;2022-09-01T10:12:55;2.45;;;0.65;;
31126;SDS011;17775;57.948;12.514;2022-09-01T10:15:23;0.55;;;0.45;;
31126;SDS011;17775;57.948;12.514;2022-09-01T10:17:50;0.70;;;0.52;;
31126;SDS011;17775;57.948;12.514;2022-09-01T10:20:37;1.13;;;0.60;;
31126;SDS011;17775;57.948;12.514;2022-09-01T10:23:04;0.52;;;0.50;;
31126;SDS011;17775;57.948;12.514;2022-09-01T10:25:40;1.25;;;0.60;;
31126;SDS011;17775;57.948;12.514;2022-09-01T10:28:12;1.25;;;0.70;;
31126;SDS011;17775;57.948;12.514;2022-09-01T10:30:46;0.65;;;0.50;;
31126;SDS011;17775;57.948;12.514;2022-09-01T10:33:14;1.45;;;0.60;;
31126;SDS011;17775;57.948;12.514;2022-09-01T10:35:47;1.85;;;0.50;;
31126;SDS011;17775;57.948;12.514;2022-09-01T10:38:15;1.83;;;0.50;;
31126;SDS011;17775;57.948;12.514;2022-09-01T10:40:44;3.03;;;0.57;;
31126;SDS011;17775;57.948;12.514;2022-09-01T10:46:08;2.42;;;0.60;;
31126;SDS011;17775;57.948;12.514;2022-09-01T10:48:41;2.08;;;0.55;;
31126;SDS011;17775;57.948;12.514;2022-09-01T10:54:00;0.77;;;0.55;;
31126;SDS011;17775;57.948;12.514;2022-09-01T10:59:30;1.20;;;0.55;;
31126;SDS011;17775;57.948;12.514;2022-09-01T11:02:08;0.90;;;0.60;;
31126;SDS011;17775;57.948;12.514;2022-09-01T11:07:29;1.58;;;0.70;;
31126;SDS011;17775;57.948;12.514;2022-09-01T11:15:43;1.25;;;0.50;;
31126;SDS011;17775;57.948;12.514;2022-09-01T11:18:32;0.80;;;0.50;;
31126;SDS011;17775;57.948;12.514;2022-09-01T11:21:13;1.30;;;0.63;;
31126;SDS011;17775;57.948;12.514;2022-09-01T11:23:40;2.05;;;0.65;;
31126;SDS011;17775;57.948;12.514;2022-09-01T11:26:43;1.50;;;0.75;;
31126;SDS011;17775;57.948;12.514;2022-09-01T11:29:03;1.65;;;0.63;;
31126;SDS011;17775;57.948;12.514;2022-09-01T11:31:31;1.33;;;0.50;;
31126;SDS011;17775;57.948;12.514;2022-09-01T11:34:11;0.70;;;0.47;;
31126;SDS011;17775;57.948;12.514;2022-09-01T11:47:07;0.95;;;0.60;;
31126;SDS011;17775;57.948;12.514;2022-09-01T11:49:44;0.40;;;0.40;;
31126;SDS011;17775;57.948;12.514;2022-09-01T11:52:15;0.75;;;0.60;;
31126;SDS011;17775;57.948;12.514;2022-09-01T11:54:42;1.05;;;0.60;;
31126;SDS011;17775;57.948;12.514;2022-09-01T11:57:22;0.88;;;0.40;;
31126;SDS011;17775;57.948;12.514;2022-09-01T11:59:49;0.85;;;0.55;;
31126;SDS011;17775;57.948;12.514;2022-09-01T12:02:27;0.68;;;0.45;;
31126;SDS011;17775;57.948;12.514;2022-09-01T12:04:54;1.05;;;0.50;;
31126;SDS011;17775;57.948;12.514;2022-09-01T12:09:59;0.43;;;0.40;;
31126;SDS011;17775;57.948;12.514;2022-09-01T12:12:30;0.77;;;0.60;;
31126;SDS011;17775;57.948;12.514;2022-09-01T12:14:58;0.57;;;0.57;;
31126;SDS011;17775;57.948;12.514;2022-09-01T12:17:32;1.35;;;0.80;;
31126;SDS011;17775;57.948;12.514;2022-09-01T12:22:43;1.00;;;0.82;;
31126;SDS011;17775;57.948;12.514;2022-09-01T12:25:21;3.75;;;1.00;;
31126;SDS011;17775;57.948;12.514;2022-09-01T12:30:17;1.48;;;1.10;;
31126;SDS011;17775;57.948;12.514;2022-09-01T12:32:43;1.17;;;1.10;;
31126;SDS011;17775;57.948;12.514;2022-09-01T12:35:21;1.30;;;1.20;;
31126;SDS011;17775;57.948;12.514;2022-09-01T12:37:47;1.73;;;1.10;;
31126;SDS011;17775;57.948;12.514;2022-09-01T12:40:23;1.17;;;1.08;;
31126;SDS011;17775;57.948;12.514;2022-09-01T12:42:50;1.15;;;0.93;;
31126;SDS011;17775;57.948;12.514;2022-09-01T12:48:02;0.82;;;0.82;;
31126;SDS011;17775;57.948;12.514;2022-09-01T12:52:55;1.05;;;1.05;;
31126;SDS011;17775;57.948;12.514;2022-09-01T12:55:31;1.17;;;1.00;;
31126;SDS011;17775;57.948;12.514;2022-09-01T12:58:18;1.20;;;1.10;;
31126;SDS011;17775;57.948;12.514;2022-09-01T13:00:59;0.90;;;0.90;;
31126;SDS011;17775;57.948;12.514;2022-09-01T13:03:26;1.00;;;1.00;;
31126;SDS011;17775;57.948;12.514;2022-09-01T13:05:58;1.10;;;1.10;;
31126;SDS011;17775;57.948;12.514;2022-09-01T13:08:32;3.28;;;1.35;;
31126;SDS011;17775;57.948;12.514;2022-09-01T13:11:03;1.05;;;0.90;;
31126;SDS011;17775;57.948;12.514;2022-09-01T13:13:30;1.15;;;1.10;;
31126;SDS011;17775;57.948;12.514;2022-09-01T13:15:58;1.23;;;1.13;;
31126;SDS011;17775;57.948;12.514;2022-09-01T13:18:26;1.20;;;1.10;;
31126;SDS011;17775;57.948;12.514;2022-09-01T13:20:53;0.95;;;0.90;;
31126;SDS011;17775;57.948;12.514;2022-09-01T13:23:21;1.15;;;1.05;;
31126;SDS011;17775;57.948;12.514;2022-09-01T13:25:48;1.20;;;1.10;;
31126;SDS011;17775;57.948;12.514;2022-09-01T13:28:14;1.52;;;1.42;;
31126;SDS011;17775;57.948;12.514;2022-09-01T13:30:46;1.30;;;1.20;;
31126;SDS011;17775;57.948;12.514;2022-09-01T13:33:41;1.10;;;1.10;;
31126;SDS011;17775;57.948;12.514;2022-09-01T13:36:27;0.88;;;0.88;;
31126;SDS011;17775;57.948;12.514;2022-09-01T13:39:14;1.30;;;1.20;;
31126;SDS011;17775;57.948;12.514;2022-09-01T13:41:41;1.23;;;1.00;;
31126;SDS011;17775;57.948;12.514;2022-09-01T13:44:07;1.00;;;0.95;;
31126;SDS011;17775;57.948;12.514;2022-09-01T13:46:35;0.93;;;0.93;;
31126;SDS011;17775;57.948;12.514;2022-09-01T13:49:22;1.20;;;1.10;;
31126;SDS011;17775;57.948;12.514;2022-09-01T13:52:09;1.25;;;1.10;;
31126;SDS011;17775;57.948;12.514;2022-09-01T13:54:35;1.15;;;1.05;;
31126;SDS011;17775;57.948;12.514;2022-09-01T13:57:02;1.20;;;1.10;;
31126;SDS011;17775;57.948;12.514;2022-09-01T13:59:28;1.45;;;0.98;;
31126;SDS011;17775;57.948;12.514;2022-09-01T14:01:55;1.00;;;1.00;;
31126;SDS011;17775;57.948;12.514;2022-09-01T14:04:22;0.85;;;0.85;;
31126;SDS011;17775;57.948;12.514;2022-09-01T14:06:48;1.38;;;1.02;;
31126;SDS011;17775;57.948;12.514;2022-09-01T14:09:15;0.85;;;0.85;;
31126;SDS011;17775;57.948;12.514;2022-09-01T14:11:42;0.70;;;0.70;;
31126;SDS011;17775;57.948;12.514;2022-09-01T14:14:09;1.83;;;1.10;;
31126;SDS011;17775;57.948;12.514;2022-09-01T14:16:36;1.08;;;0.93;;
31126;SDS011;17775;57.948;12.514;2022-09-01T14:19:04;1.10;;;0.98;;
31126;SDS011;17775;57.948;12.514;2022-09-01T14:21:31;1.17;;;1.02;;
31126;SDS011;17775;57.948;12.514;2022-09-01T14:23:57;0.93;;;0.93;;
31126;SDS011;17775;57.948;12.514;2022-09-01T14:26:24;1.05;;;0.95;;
31126;SDS011;17775;57.948;12.514;2022-09-01T14:28:53;0.85;;;0.82;;
31126;SDS011;17775;57.948;12.514;2022-09-01T14:31:20;1.10;;;1.00;;
31126;SDS011;17775;57.948;12.514;2022-09-01T14:33:46;0.80;;;0.80;;
31126;SDS011;17775;57.948;12.514;2022-09-01T14:36:18;0.98;;;0.77;;
31126;SDS011;17775;57.948;12.514;2022-09-01T14:38:45;0.80;;;0.80;;
31126;SDS011;17775;57.948;12.514;2022-09-01T14:41:12;0.95;;;0.90;;
31126;SDS011;17775;57.948;12.514;2022-09-01T14:43:39;1.52;;;0.90;;
31126;SDS011;17775;57.948;12.514;2022-09-01T14:46:09;0.63;;;0.63;;
31126;SDS011;17775;57.948;12.514;2022-09-01T14:48:37;0.70;;;0.70;;
31126;SDS011;17775;57.948;12.514;2022-09-01T14:51:04;0.95;;;0.90;;
31126;SDS011;17775;57.948;12.514;2022-09-01T14:53:31;1.40;;;0.88;;
31126;SDS011;17775;57.948;12.514;2022-09-01T14:55:58;0.70;;;0.68;;
31126;SDS011;17775;57.948;12.514;2022-09-01T14:58:25;0.77;;;0.77;;
31126;SDS011;17775;57.948;12.514;2022-09-01T15:00:53;0.73;;;0.73;;
31126;SDS011;17775;57.948;12.514;2022-09-01T15:05:58;1.02;;;0.93;;
31126;SDS011;17775;57.948;12.514;2022-09-01T15:08:25;1.98;;;0.90;;
31126;SDS011;17775;57.948;12.514;2022-09-01T15:10:51;1.85;;;0.82;;
31126;SDS011;17775;57.948;12.514;2022-09-01T15:13:18;0.90;;;0.90;;
31126;SDS011;17775;57.948;12.514;2022-09-01T15:15:44;0.75;;;0.75;;
31126;SDS011;17775;57.948;12.514;2022-09-01T15:18:11;0.70;;;0.70;;
31126;SDS011;17775;57.948;12.514;2022-09-01T15:20:38;0.75;;;0.75;;
31126;SDS011;17775;57.948;12.514;2022-09-01T15:23:18;0.80;;;0.77;;
31126;SDS011;17775;57.948;12.514;2022-09-01T15:25:45;0.95;;;0.93;;
31126;SDS011;17775;57.948;12.514;2022-09-01T15:28:12;1.60;;;1.10;;
31126;SDS011;17775;57.948;12.514;2022-09-01T15:30:38;1.00;;;0.88;;
31126;SDS011;17775;57.948;12.514;2022-09-01T15:33:05;1.10;;;1.00;;
31126;SDS011;17775;57.948;12.514;2022-09-01T15:35:38;0.63;;;0.60;;
31126;SDS011;17775;57.948;12.514;2022-09-01T15:38:04;0.70;;;0.70;;
31126;SDS011;17775;57.948;12.514;2022-09-01T15:40:32;1.40;;;0.60;;
31126;SDS011;17775;57.948;12.514;2022-09-01T15:42:59;1.52;;;0.80;;
31126;SDS011;17775;57.948;12.514;2022-09-01T15:45:27;1.08;;;0.70;;
31126;SDS011;17775;57.948;12.514;2022-09-01T15:47:54;1.52;;;0.60;;
31126;SDS011;17775;57.948;12.514;2022-09-01T15:50:21;0.98;;;0.70;;
31126;SDS011;17775;57.948;12.514;2022-09-01T15:52:53;0.60;;;0.60;;
31126;SDS011;17775;57.948;12.514;2022-09-01T15:55:22;2.13;;;0.60;;
31126;SDS011;17775;57.948;12.514;2022-09-01T15:57:49;1.55;;;0.50;;
31126;SDS011;17775;57.948;12.514;2022-09-01T16:00:15;1.13;;;0.50;;
31126;SDS011;17775;57.948;12.514;2022-09-01T16:02:42;2.22;;;0.60;;
31126;SDS011;17775;57.948;12.514;2022-09-01T16:05:09;1.73;;;0.47;;
31126;SDS011;17775;57.948;12.514;2022-09-01T16:07:35;2.05;;;0.70;;
31126;SDS011;17775;57.948;12.514;2022-09-01T16:10:02;0.57;;;0.40;;